New York, NY (10107)

3:31 PM EDT on September 21, 2014 (GMT -0400)
WCBS TELEVISION | Change Station
CLOSE
Current Station
Personal Weather Station
Location: New York, NY
Elevation: 13 ft
Nearby Weather Stations

Elev 13 ft 40.77 °N, 73.99 °W | Updated 3 seconds ago

Haze
Haze
75.1 °F
Feels Like 76 °F
N
1.5
Wind Variable Wind from WNW
Gusts 3.5 mph

Today
High -- | Low -- °F
--% Chance of Precip.
Yesterday
High -- | Low -- °F
Precip. -- in
6:42 AM 6:54 PM
Waning Crescent, 6% visible
Pressure 29.72 in
Visibility 5.0 miles
Clouds Few 1500 ft
Mostly Cloudy 2200 ft
Mostly Cloudy 3800 ft
Heat Index 76 °F
Dew Point 69 °F
Humidity 81%
Rainfall 0.08 in
Snow Depth Not available.
UV 2 out of 12
Pollen 2.60 out of 12
Ozone Good
PM2.5 Good
Flu Activity Not available.
SPECI KNYC 211929Z AUTO 00000KT 5SM HZ FEW015 BKN022 BKN038 24/19 A2972 RMK AO2 T02390194

More Conditions Fewer Conditions

Pressure 29.72 in
Visibility 5.0 miles
Clouds Few 1500 ft
Mostly Cloudy 2200 ft
Mostly Cloudy 3800 ft
Heat Index 76 °F
Dew Point 69 °F
Humidity 81%
Rainfall 0.08 in
Snow Depth Not available.
UV 2 out of 12
Pollen 2.60 out of 12
Ozone Good
PM2.5 Good
Flu Activity Not available.
SPECI KNYC 211929Z AUTO 00000KT 5SM HZ FEW015 BKN022 BKN038 24/19 A2972 RMK AO2 T02390194

More Conditions Fewer Conditions

10-Day Weather Forecast

Almanac

Astronomy

Sep. 21, 2014 Rise Set
Actual Time 6:42 AM EDT 6:54 PM EDT
Civil Twilight 6:15 AM EDT 7:22 PM EDT
Nautical Twilight 5:42 AM EDT 7:54 PM EDT
Astronomical Twilight 5:10 AM EDT 8:26 PM EDT
Moon 4:12 AM EDT 5:30 PM EDT
Length of Visible Light 13h 07m
Length of Day
12h 12m
Tomorrow will be 2m 41s shorter.
Waning Crescent, 6% of the Moon is Illuminated
Today
Waning Crescent
Sep 24
New
Oct 1
First Quarter
Oct 8
Full
Oct 15
Last Quarter

Today's Extremes

State Highs State Lows

Community

WunderPhotos

Upload Photos

1,755,232 photos uploaded!

Nearby

Air Quality

  Air Quality AQ Index Pollutant
Yesterday Good
PM2.5
Yesterday Good
OZONE
Current Good
PM2.5
Current Good
OZONE
Sunday Good
PM2.5
Sunday Good
OZONE
Monday Good
PM2.5
Monday Good
OZONE

Snow Depth

Station Depth Elevation
No new snow has been reported.

Earthquake Activity

City Distance Mag. Time & Date
No recent earthquake activity has been reported nearby.
Minimum magnitude displayed is 2.5.

Coastal Water Temperatures

Place Temperature
Sandy Hook, NJ 69.1 °F
The Battery, NY 71.1 °F
Bergen Point West Reach, NJ 71.1 °F
Kings Point, NY 69.1 °F

Nearby Weather Stations